createdAt,value
2022-11-29T00:01:11.845Z,9.23
2022-11-29T00:03:38.897Z,8.80
2022-11-29T00:06:07.289Z,9.55
2022-11-29T00:08:34.103Z,9.10
2022-11-29T00:11:35.788Z,8.88
2022-11-29T00:14:02.677Z,8.90
2022-11-29T00:16:29.418Z,10.13
2022-11-29T00:18:56.524Z,9.23
2022-11-29T00:21:23.209Z,8.70
2022-11-29T00:23:50.064Z,9.30
2022-11-29T00:26:16.850Z,8.80
2022-11-29T00:28:43.547Z,9.30
2022-11-29T00:31:20.812Z,9.27
2022-11-29T00:33:48.236Z,9.10
2022-11-29T00:36:16.201Z,9.95
2022-11-29T00:38:43.194Z,9.25
2022-11-29T00:41:10.377Z,8.55
2022-11-29T00:43:37.236Z,9.25
2022-11-29T00:46:04.612Z,8.40
2022-11-29T00:48:32.017Z,8.65
2022-11-29T00:50:59.025Z,7.93
2022-11-29T00:53:25.721Z,9.98
2022-11-29T00:55:53.587Z,9.07
2022-11-29T00:58:21.123Z,8.55
2022-11-29T01:00:48.316Z,8.60
2022-11-29T01:03:16.443Z,9.57
2022-11-29T01:05:45.651Z,9.40
2022-11-29T01:08:13.542Z,8.55
2022-11-29T01:10:41.071Z,9.15
2022-11-29T01:13:09.686Z,8.73
2022-11-29T01:15:37.235Z,8.50
2022-11-29T01:18:04.075Z,9.00
2022-11-29T01:20:31.067Z,7.97
2022-11-29T01:22:58.287Z,9.68
2022-11-29T01:25:25.270Z,8.90
2022-11-29T01:27:51.846Z,9.23
2022-11-29T01:30:18.448Z,8.05
2022-11-29T01:32:45.236Z,8.65
2022-11-29T01:35:12.105Z,8.90
2022-11-29T01:37:38.867Z,8.70
2022-11-29T01:40:06.433Z,9.15
2022-11-29T01:42:33.166Z,8.90
2022-11-29T01:45:20.333Z,8.75
2022-11-29T01:47:49.172Z,9.05
2022-11-29T01:50:16.509Z,8.82
2022-11-29T01:52:44.175Z,8.65
2022-11-29T01:55:12.025Z,9.77
2022-11-29T01:57:41.333Z,8.95
2022-11-29T02:00:12.684Z,8.52
2022-11-29T02:02:44.974Z,8.25
2022-11-29T02:05:15.063Z,8.95
2022-11-29T02:07:53.561Z,9.38
2022-11-29T02:10:26.104Z,9.23
2022-11-29T02:13:14.461Z,10.15
2022-11-29T02:15:59.940Z,9.00
2022-11-29T02:18:38.791Z,8.68
2022-11-29T02:21:24.351Z,8.32
2022-11-29T02:24:11.023Z,9.27
2022-11-29T02:27:18.197Z,8.75
2022-11-29T02:30:08.287Z,8.30
2022-11-29T02:33:06.217Z,9.80
2022-11-29T02:35:42.085Z,8.43
2022-11-29T02:38:27.889Z,8.15
2022-11-29T02:40:57.623Z,9.38
2022-11-29T02:44:00.955Z,9.10
2022-11-29T02:46:45.573Z,8.27
2022-11-29T02:49:22.701Z,10.30
2022-11-29T02:51:49.267Z,8.45
2022-11-29T02:54:29.451Z,8.57
2022-11-29T02:57:14.599Z,8.75
2022-11-29T02:59:52.721Z,7.10
2022-11-29T03:02:32.977Z,8.52
2022-11-29T03:05:17.779Z,8.93
2022-11-29T03:07:59.533Z,9.63
2022-11-29T03:10:55.730Z,9.00
2022-11-29T03:13:55.083Z,9.48
2022-11-29T03:16:43.246Z,8.43
2022-11-29T03:19:10.217Z,9.40
2022-11-29T03:21:44.211Z,9.35
2022-11-29T03:24:21.299Z,10.23
2022-11-29T03:27:06.728Z,9.85
2022-11-29T03:29:43.223Z,9.05
2022-11-29T03:32:21.529Z,9.60
2022-11-29T03:35:23.928Z,9.98
2022-11-29T03:38:03.196Z,9.65
2022-11-29T03:40:38.632Z,8.00
2022-11-29T03:43:20.077Z,9.43
2022-11-29T03:45:59.253Z,8.68
2022-11-29T03:48:44.943Z,8.43
2022-11-29T03:51:18.924Z,8.90
2022-11-29T03:53:54.555Z,8.63
2022-11-29T03:56:34.870Z,9.07
2022-11-29T03:59:13.632Z,9.02
2022-11-29T04:02:04.042Z,10.02
2022-11-29T04:04:53.772Z,9.27
2022-11-29T04:07:48.059Z,8.95
2022-11-29T04:10:43.242Z,8.75
2022-11-29T04:13:29.216Z,8.60
2022-11-29T04:16:44.788Z,9.10
2022-11-29T04:19:41.004Z,9.70
2022-11-29T04:22:19.857Z,9.32
2022-11-29T04:25:17.262Z,9.25
2022-11-29T04:27:52.882Z,8.25
2022-11-29T04:30:25.818Z,8.15
2022-11-29T04:33:04.839Z,9.07
2022-11-29T04:35:50.248Z,9.70
2022-11-29T04:38:37.887Z,7.80
2022-11-29T04:41:23.281Z,7.90
2022-11-29T04:46:58.074Z,7.28
2022-11-29T04:49:56.370Z,8.27
2022-11-29T04:52:44.813Z,8.40
2022-11-29T04:55:31.191Z,8.43
2022-11-29T04:58:16.212Z,7.80
2022-11-29T05:00:56.800Z,8.48
2022-11-29T05:03:56.900Z,8.07
2022-11-29T05:06:43.647Z,8.40
2022-11-29T05:09:26.133Z,6.90
2022-11-29T05:12:05.835Z,8.55
2022-11-29T05:14:40.912Z,7.88
2022-11-29T05:17:38.829Z,8.20
2022-11-29T05:20:15.259Z,8.52
2022-11-29T05:23:22.731Z,8.55
2022-11-29T05:26:09.799Z,8.75
2022-11-29T05:28:53.883Z,8.32
2022-11-29T05:31:20.930Z,8.40
2022-11-29T05:34:15.072Z,9.05
2022-11-29T05:36:53.846Z,9.25
2022-11-29T05:39:33.486Z,8.20
2022-11-29T05:42:08.688Z,8.15
2022-11-29T05:44:45.095Z,7.88
2022-11-29T05:47:18.122Z,8.98
2022-11-29T05:49:52.486Z,8.57
2022-11-29T05:52:43.854Z,8.57
2022-11-29T05:55:32.165Z,7.88
2022-11-29T05:58:17.610Z,8.70
2022-11-29T06:00:57.181Z,8.25
2022-11-29T06:03:40.423Z,9.10
2022-11-29T06:06:19.649Z,8.88
2022-11-29T06:08:56.032Z,9.40
2022-11-29T06:11:32.792Z,7.90
2022-11-29T06:14:20.392Z,7.88
2022-11-29T06:17:08.981Z,8.30
2022-11-29T06:19:54.104Z,9.15
2022-11-29T06:22:50.889Z,8.60
2022-11-29T06:25:53.501Z,8.30
2022-11-29T06:28:32.407Z,8.60
2022-11-29T06:31:08.515Z,7.90
2022-11-29T06:34:01.105Z,8.27
2022-11-29T06:36:48.640Z,8.75
2022-11-29T06:39:17.769Z,14.60
2022-11-29T06:41:44.451Z,13.25
2022-11-29T06:44:11.650Z,12.70
2022-11-29T06:46:48.004Z,9.75
2022-11-29T06:49:28.775Z,9.63
2022-11-29T06:52:38.284Z,9.52
2022-11-29T06:55:34.797Z,9.63
2022-11-29T06:58:40.500Z,9.43
2022-11-29T07:01:47.995Z,9.20
2022-11-29T07:04:23.351Z,9.05
2022-11-29T07:06:50.348Z,11.55
2022-11-29T07:09:19.483Z,11.60
2022-11-29T07:11:47.788Z,10.32
2022-11-29T07:14:16.511Z,8.27
2022-11-29T07:17:08.317Z,8.93
2022-11-29T07:19:46.986Z,8.75
2022-11-29T07:22:32.524Z,7.93
2022-11-29T07:25:21.757Z,9.48
2022-11-29T07:28:30.990Z,8.32
2022-11-29T07:31:00.583Z,8.65
2022-11-29T07:33:48.549Z,10.25
2022-11-29T07:36:38.424Z,9.45
2022-11-29T07:39:24.376Z,10.75
2022-11-29T07:42:03.002Z,9.27
2022-11-29T07:44:39.082Z,8.65
2022-11-29T07:47:06.151Z,13.23
2022-11-29T07:49:32.784Z,10.90
2022-11-29T07:51:59.617Z,14.75
2022-11-29T07:54:26.844Z,66.78
2022-11-29T07:56:54.039Z,21.23
2022-11-29T07:59:20.702Z,15.98
2022-11-29T08:01:47.532Z,12.77
2022-11-29T08:04:14.259Z,11.30
2022-11-29T08:06:41.807Z,10.48
2022-11-29T08:09:08.413Z,11.30
2022-11-29T08:11:35.099Z,10.02
2022-11-29T08:14:04.324Z,10.27
2022-11-29T08:16:31.565Z,8.75
2022-11-29T08:18:58.316Z,8.43
2022-11-29T08:21:25.035Z,15.82
2022-11-29T08:23:52.088Z,8.57
2022-11-29T08:26:20.336Z,13.40
2022-11-29T08:28:52.266Z,23.50
2022-11-29T08:31:20.646Z,23.38
2022-11-29T08:33:48.313Z,15.80
2022-11-29T08:36:18.480Z,10.45
2022-11-29T08:38:46.218Z,9.65
2022-11-29T08:41:15.898Z,21.77
2022-11-29T08:43:43.475Z,13.65
2022-11-29T08:46:13.766Z,10.27
2022-11-29T08:48:45.233Z,12.93
2022-11-29T08:51:11.887Z,9.88
2022-11-29T08:59:01.537Z,8.25
2022-11-29T09:01:29.788Z,8.32
2022-11-29T09:04:07.436Z,6.93
2022-11-29T09:06:38.905Z,7.55
2022-11-29T09:09:06.394Z,8.32
2022-11-29T09:11:35.375Z,6.70
2022-11-29T09:14:05.906Z,7.82
2022-11-29T09:16:38.006Z,7.75
2022-11-29T09:19:05.856Z,6.65
2022-11-29T09:21:34.973Z,8.27
2022-11-29T14:56:28.659Z,9.07
2022-11-29T14:59:34.265Z,9.02
2022-11-29T15:06:00.156Z,9.85
2022-11-29T15:08:55.007Z,7.97
2022-11-29T15:11:33.931Z,8.30
2022-11-29T15:14:22.541Z,8.40
2022-11-29T15:17:22.918Z,8.25
2022-11-29T15:43:20.039Z,14.32
2022-11-29T15:45:52.150Z,14.10
2022-11-29T15:48:25.265Z,12.50
2022-11-29T15:51:32.721Z,9.32
2022-11-29T15:54:15.373Z,9.90
2022-11-29T15:56:54.489Z,10.82
2022-11-29T15:59:26.994Z,10.18
2022-11-29T16:02:03.335Z,10.30
2022-11-29T16:04:31.605Z,9.80
2022-11-29T16:06:59.415Z,10.48
2022-11-29T16:09:35.553Z,11.65
2022-11-29T16:12:04.468Z,12.07
2022-11-29T16:14:33.421Z,11.13
2022-11-29T16:17:02.652Z,10.75
2022-11-29T16:19:30.962Z,10.18
2022-11-29T16:22:13.154Z,9.02
2022-11-29T16:25:01.301Z,9.70
2022-11-29T16:27:35.725Z,10.30
2022-11-29T16:30:06.433Z,10.77
2022-11-29T16:32:35.340Z,10.13
2022-11-29T16:35:26.509Z,9.77
2022-11-29T16:37:53.519Z,9.60
2022-11-29T16:40:33.726Z,8.90
2022-11-29T16:43:06.887Z,10.10
2022-11-29T16:45:43.266Z,9.02
2022-11-29T16:48:30.043Z,10.90
2022-11-29T16:51:36.021Z,9.10
2022-11-29T16:54:22.735Z,10.55
2022-11-29T16:56:52.220Z,9.32
2022-11-29T16:59:26.863Z,10.05
2022-11-29T17:01:55.364Z,9.00
2022-11-29T17:04:23.796Z,10.05
2022-11-29T17:06:53.727Z,9.45
2022-11-29T17:09:24.360Z,9.98
2022-11-29T17:11:53.075Z,10.45
2022-11-29T17:14:22.273Z,9.68
2022-11-29T17:16:52.322Z,11.48
2022-11-29T17:19:25.824Z,11.00
2022-11-29T17:21:55.555Z,11.32
2022-11-29T17:24:26.054Z,9.73
2022-11-29T17:26:52.763Z,10.02
2022-11-29T17:29:19.609Z,11.77
2022-11-29T17:31:47.579Z,10.98
2022-11-29T17:34:16.767Z,11.18
2022-11-29T17:36:48.340Z,10.57
2022-11-29T17:39:20.466Z,11.85
2022-11-29T17:41:47.689Z,11.93
2022-11-29T17:44:17.609Z,11.23
2022-11-29T17:46:47.895Z,11.35
2022-11-29T17:49:14.506Z,12.25
2022-11-29T17:51:56.983Z,11.45
2022-11-29T17:54:24.074Z,11.02
2022-11-29T17:56:51.968Z,12.45
2022-11-29T17:59:18.829Z,13.40
2022-11-29T18:01:47.553Z,13.65
2022-11-29T18:04:15.085Z,12.68
2022-11-29T18:06:41.794Z,14.30
2022-11-29T18:09:10.973Z,15.00
2022-11-29T18:11:48.586Z,15.75
2022-11-29T18:14:20.890Z,15.00
2022-11-29T18:16:47.926Z,17.13
2022-11-29T18:19:17.496Z,15.23
2022-11-29T18:21:47.580Z,14.98
2022-11-29T18:24:15.388Z,14.82
2022-11-29T18:26:42.992Z,15.10
2022-11-29T18:29:09.781Z,15.45
2022-11-29T18:31:41.097Z,14.40
2022-11-29T18:34:10.117Z,16.42
2022-11-29T18:36:45.581Z,15.15
2022-11-29T18:39:15.485Z,14.00
2022-11-29T18:41:50.077Z,15.00
2022-11-29T18:44:19.613Z,14.90
2022-11-29T18:46:46.584Z,16.38
2022-11-29T18:49:16.062Z,14.30
2022-11-29T18:51:44.729Z,30.52
2022-11-29T18:54:12.934Z,25.85
2022-11-29T18:56:42.343Z,18.92
2022-11-29T18:59:18.320Z,17.52
2022-11-29T19:01:48.392Z,16.42
2022-11-29T19:04:17.978Z,14.65
2022-11-29T19:06:48.300Z,14.35
2022-11-29T19:09:17.289Z,14.05
2022-11-29T19:11:44.030Z,14.73
2022-11-29T19:14:12.966Z,13.93
2022-11-29T19:16:42.972Z,16.45
2022-11-29T19:19:09.987Z,16.02
2022-11-29T19:21:37.126Z,16.17
2022-11-29T19:24:08.272Z,15.80
2022-11-29T19:26:35.052Z,14.18
2022-11-29T19:29:02.177Z,13.77
2022-11-29T19:31:29.627Z,13.25
2022-11-29T19:33:57.291Z,15.50
2022-11-29T19:36:29.644Z,15.40
2022-11-29T19:38:57.914Z,15.27
2022-11-29T19:41:30.653Z,14.43
2022-11-29T19:43:59.833Z,16.70
2022-11-29T19:46:29.264Z,16.20
2022-11-29T19:48:57.755Z,17.52
2022-11-29T19:51:25.896Z,16.27
2022-11-29T19:53:59.298Z,17.50
2022-11-29T19:56:27.018Z,16.55
2022-11-29T19:58:54.426Z,17.75
2022-11-29T20:01:25.354Z,17.75
2022-11-29T20:03:52.728Z,18.02
2022-11-29T20:06:19.765Z,16.90
2022-11-29T20:08:46.621Z,16.88
2022-11-29T20:11:23.807Z,16.33
2022-11-29T20:14:01.629Z,16.67
2022-11-29T20:16:29.764Z,16.75
2022-11-29T20:18:57.395Z,17.83
2022-11-29T20:21:32.279Z,16.58
2022-11-29T20:26:28.823Z,16.90
2022-11-29T20:28:55.495Z,17.15
2022-11-29T20:31:23.209Z,17.52
2022-11-29T20:33:52.773Z,17.60
2022-11-29T20:36:58.268Z,17.85
2022-11-29T20:39:47.956Z,17.02
2022-11-29T20:42:29.792Z,17.73
2022-11-29T20:44:59.445Z,18.20
2022-11-29T20:48:05.399Z,18.98
2022-11-29T20:50:32.674Z,15.63
2022-11-29T20:53:18.174Z,15.50
2022-11-29T20:58:15.194Z,15.93
2022-11-29T21:00:42.010Z,15.75
2022-11-29T21:03:08.724Z,17.50
2022-11-29T21:05:38.056Z,16.58
2022-11-29T21:08:04.833Z,15.50
2022-11-29T21:10:33.573Z,16.98
2022-11-29T21:13:00.566Z,16.67
2022-11-29T21:15:27.692Z,17.35
2022-11-29T21:17:55.040Z,17.98
2022-11-29T21:20:24.209Z,17.98
2022-11-29T21:23:21.137Z,15.98
2022-11-29T21:25:58.064Z,15.63
2022-11-29T21:28:31.765Z,17.00
2022-11-29T21:30:58.863Z,19.67
2022-11-29T21:33:25.644Z,16.20
2022-11-29T21:35:57.905Z,18.58
2022-11-29T21:38:26.910Z,22.85
2022-11-29T21:40:53.593Z,18.65
2022-11-29T21:43:20.813Z,20.83
2022-11-29T21:45:49.705Z,19.33
2022-11-29T21:48:35.016Z,16.75
2022-11-29T21:53:33.354Z,17.63
2022-11-29T21:56:01.667Z,17.85
2022-11-29T21:58:32.705Z,16.00
2022-11-29T22:01:27.723Z,19.63
2022-11-29T22:03:54.720Z,17.23
2022-11-29T22:06:24.432Z,16.67
2022-11-29T22:08:51.600Z,17.02
2022-11-29T22:11:34.374Z,15.73
2022-11-29T22:14:19.243Z,16.60
2022-11-29T22:17:00.064Z,16.45
2022-11-29T22:19:29.397Z,17.08
2022-11-29T22:21:58.766Z,19.10
2022-11-29T22:24:31.210Z,19.50
2022-11-29T22:26:57.878Z,20.30
2022-11-29T22:29:26.297Z,18.27
2022-11-29T22:31:55.417Z,19.42
2022-11-29T22:34:25.362Z,21.25
2022-11-29T22:36:52.221Z,19.80
2022-11-29T22:39:19.118Z,19.92
2022-11-29T22:41:52.222Z,19.92
2022-11-29T22:46:47.661Z,18.83
2022-11-29T22:49:15.176Z,20.73
2022-11-29T22:51:42.091Z,19.33
2022-11-29T22:54:11.394Z,19.30
2022-11-29T22:56:40.849Z,19.85
2022-11-29T22:59:08.044Z,19.65
2022-11-29T23:01:36.691Z,19.35
2022-11-29T23:04:06.083Z,21.05
2022-11-29T23:06:42.288Z,19.48
2022-11-29T23:09:21.092Z,22.40
2022-11-29T23:11:56.157Z,21.50
2022-11-29T23:14:24.189Z,21.05
2022-11-29T23:16:51.787Z,21.48
2022-11-29T23:19:18.895Z,21.70
2022-11-29T23:21:46.334Z,19.73
2022-11-29T23:24:14.942Z,21.05
2022-11-29T23:26:44.980Z,22.30
2022-11-29T23:29:19.661Z,19.85
2022-11-29T23:31:47.391Z,18.77
2022-11-29T23:34:14.641Z,19.20
2022-11-29T23:36:41.844Z,19.00
2022-11-29T23:39:09.433Z,16.42
2022-11-29T23:41:36.963Z,19.42
2022-11-29T23:44:08.825Z,15.98
2022-11-29T23:46:45.827Z,14.52
2022-11-29T23:49:12.496Z,14.48
2022-11-29T23:51:39.241Z,16.92
2022-11-29T23:54:06.069Z,17.95
2022-11-29T23:56:35.571Z,19.00
2022-11-29T23:59:02.700Z,21.98
